Aeroporto :
LOGIN :

Iscrizione | Disclaimer

   EN    FR    IT 

 










Sommario :    VFR   VFR Marginale   IFR   IFR Intensivo   IFR Molto Intensivo
Visibilità : 
Base nubi : 
>= 8 km
>= 3000ft
5 / 8 km
1000 / 3000 ft
1500m / 5 km
500 / 1000 ft
800 / 1500m
200 / 500 ft
< 800m
< 200 ft
Simboli :   Temporali  Nebbia  Neve Forte  Precipitazioni Forti  Vento > 20 kt
SIGMETs :   Varie  Temporali  Ghiacco  Turbolenza  Onda orograficha  Ceneri Vulcaniche






- Altitudine del aeroporto : 502 ft
- Codice IATA : ORK


EICK - Cork

ULTIMO METAR :
  • 121230Z 33008KT 300V360 9999 FEW016 SCT020 23/17 Q1015 NOSIG

METARs OBSOLETI :
  • 121200Z 32008KT 270V330 9999 FEW016 SCT018 22/16 Q1015 NOSIG
  • 121130Z 33007KT 280V350 9999 FEW018 SCT021 21/16 Q1016 NOSIG
  • 121100Z 33007KT 9999 FEW017 SCT027 21/16 Q1016 NOSIG
  • 121030Z 34009KT 9999 FEW017 20/16 Q1015 NOSIG
  • 121000Z 01009KT 9999 FEW017 20/15 Q1016 NOSIG

TAF TAF EICK
Valido dal 12 a 12 ore il 13 a 12 ore UTC


121100Z 1212/1312 34008KT 9999 FEW035
TEMPO 1221/1310 4000 SHRA BKN008 SCT030CB
TEMPO 1310/1312 BKN006



MetMap, La meteo Aeronautica in un colpo d'occhio ! - Copyright ORBIFLY Dicembre 2007 - Disclaimer

ORBIFLY MET'MAP TEAM :

Programmazione e sviluppo : Alexandra Zaïnal
Concezione : Baudouin d'Aumeries
Aiuto per la programmazione : Marc-Olivier Méhu
Supporto tecnico e logistico : Manuel Goepfert
Aiuto per la traduzione : Arnaldo La Scala

Contatto : metmap@orbifly.com




FONTI E CREDITI :

   NOAA